Winooski, Vermont
Current Conditions -  °F | °C
As of 4:54 PM on Monday 20 Oct 2014 (Local Time) from KBTV Reporting Station
Overcast Overcast  
Wind Chill:   Ceiling: 6000
Heat Index:   Visibility: 10mi
Dew Point:   Wind: 0mph
Humidity: 59%   Direction: NA
Pressure: 29.93"   Gusts: NA
Location:  44.49°N, 73.19°W
Report Text: KBTV 202054Z 00000KT 10SM OVC060 09/02 A2993 RMK AO2 SLP138 T00940017 56004
Loading
Personal Weather Stations






























Interactive Weather Map New forecast layout! Learn more

10-Day Weather Forecast

Advertisements
Track Severe Weather on mobile